Terminal Aerodrome Forecast
Issued by NWS

Home | Current Version | Previous Version | Text Only | Print | Product List | Glossary On
Versions: 1 2 3 4 5 6 7 8 9 10 11 12 13 14 15 16 17 18 19 20
000
FTUS45 KRIW 290900 AAB
TAFJAC
TAF AMD
KJAC 290922Z 2909/3006 36006KT 1SM BR SCT003 BKN035
      TEMPO 2909/2912 1/2SM FG BKN003
     FM291500 VRB05KT P6SM SCT020 BKN050
     FM292100 VRB05KT P6SM VCSH SCT045 BKN070
     FM300100 VRB05KT P6SM BKN060
      AMD LTD TO CLD VIS AND WIND=

USA.gov is the U.S. government's official web portal to all federal, state and local government web resources and services.